sensor_id;sensor_type;location;lat;lon;timestamp;noise_LAeq;noise_LA_min;noise_LA_max;noise_LA01;noise_LA95
42701;Laerm;28316;49.504;8.526;2023-07-02T00:01:47;41.67;40.33;44.19;;
42701;Laerm;28316;49.504;8.526;2023-07-02T00:04:14;41.69;40.33;42.98;;
42701;Laerm;28316;49.504;8.526;2023-07-02T00:06:48;41.67;40.33;43.14;;
42701;Laerm;28316;49.504;8.526;2023-07-02T00:09:15;41.69;40.33;42.88;;
42701;Laerm;28316;49.504;8.526;2023-07-02T00:11:44;41.68;39.58;42.88;;
42701;Laerm;28316;49.504;8.526;2023-07-02T00:14:11;41.66;40.03;42.85;;
42701;Laerm;28316;49.504;8.526;2023-07-02T00:16:45;41.64;40.13;43.04;;
42701;Laerm;28316;49.504;8.526;2023-07-02T00:19:15;41.61;40.03;42.82;;
42701;Laerm;28316;49.504;8.526;2023-07-02T00:21:41;41.58;40.03;42.82;;
42701;Laerm;28316;49.504;8.526;2023-07-02T00:24:09;41.52;39.81;42.59;;
42701;Laerm;28316;49.504;8.526;2023-07-02T00:26:38;41.48;39.92;42.93;;
42701;Laerm;28316;49.504;8.526;2023-07-02T00:29:05;41.47;40.23;42.93;;
42701;Laerm;28316;49.504;8.526;2023-07-02T00:31:32;41.45;39.92;42.71;;
42701;Laerm;28316;49.504;8.526;2023-07-02T00:33:59;41.46;40.08;42.76;;
42701;Laerm;28316;49.504;8.526;2023-07-02T00:36:26;41.45;39.92;42.71;;
42701;Laerm;28316;49.504;8.526;2023-07-02T00:38:52;41.44;40.03;42.65;;
42701;Laerm;28316;49.504;8.526;2023-07-02T00:41:18;41.43;40.03;42.71;;
42701;Laerm;28316;49.504;8.526;2023-07-02T00:43:44;41.40;39.81;42.74;;
42701;Laerm;28316;49.504;8.526;2023-07-02T00:46:17;41.37;39.70;42.79;;
42701;Laerm;28316;49.504;8.526;2023-07-02T00:48:51;41.30;39.70;42.59;;
42701;Laerm;28316;49.504;8.526;2023-07-02T00:51:23;41.23;39.70;42.59;;
42701;Laerm;28316;49.504;8.526;2023-07-02T00:53:51;41.18;39.34;42.71;;
42701;Laerm;28316;49.504;8.526;2023-07-02T00:56:18;41.15;39.58;42.47;;
42701;Laerm;28316;49.504;8.526;2023-07-02T00:58:47;41.11;39.46;42.71;;
42701;Laerm;28316;49.504;8.526;2023-07-02T01:01:18;41.06;38.95;42.71;;
42701;Laerm;28316;49.504;8.526;2023-07-02T01:04:10;41.03;39.58;42.29;;
42701;Laerm;28316;49.504;8.526;2023-07-02T01:06:38;40.95;39.46;42.35;;
42701;Laerm;28316;49.504;8.526;2023-07-02T01:09:07;40.89;38.95;42.65;;
42701;Laerm;28316;49.504;8.526;2023-07-02T01:11:46;40.93;39.58;42.22;;
42701;Laerm;28316;49.504;8.526;2023-07-02T01:14:24;40.98;39.70;42.22;;
42701;Laerm;28316;49.504;8.526;2023-07-02T01:16:53;41.04;39.34;42.22;;
42701;Laerm;28316;49.504;8.526;2023-07-02T01:19:46;41.11;39.46;42.29;;
42701;Laerm;28316;49.504;8.526;2023-07-02T01:22:25;41.15;39.46;42.53;;
42701;Laerm;28316;49.504;8.526;2023-07-02T01:24:52;41.15;39.70;42.29;;
42701;Laerm;28316;49.504;8.526;2023-07-02T01:27:19;41.19;39.57;42.41;;
42701;Laerm;28316;49.504;8.526;2023-07-02T01:29:45;41.23;39.70;42.65;;
42701;Laerm;28316;49.504;8.526;2023-07-02T01:32:15;41.25;39.81;42.41;;
42701;Laerm;28316;49.504;8.526;2023-07-02T01:34:40;41.23;39.58;42.59;;
42701;Laerm;28316;49.504;8.526;2023-07-02T01:37:06;41.32;39.70;42.65;;
42701;Laerm;28316;49.504;8.526;2023-07-02T01:39:34;41.28;39.92;42.59;;
42701;Laerm;28316;49.504;8.526;2023-07-02T01:42:26;41.23;39.46;42.47;;
42701;Laerm;28316;49.504;8.526;2023-07-02T01:44:52;41.25;39.92;42.35;;
42701;Laerm;28316;49.504;8.526;2023-07-02T01:47:18;41.25;39.81;42.53;;
42701;Laerm;28316;49.504;8.526;2023-07-02T01:49:45;41.24;39.70;42.53;;
42701;Laerm;28316;49.504;8.526;2023-07-02T01:52:11;41.27;39.92;42.41;;
42701;Laerm;28316;49.504;8.526;2023-07-02T01:54:36;41.27;39.81;42.42;;
42701;Laerm;28316;49.504;8.526;2023-07-02T01:57:03;41.32;39.81;42.53;;
42701;Laerm;28316;49.504;8.526;2023-07-02T01:59:29;41.36;39.70;42.59;;
42701;Laerm;28316;49.504;8.526;2023-07-02T02:01:55;41.38;39.70;42.59;;
42701;Laerm;28316;49.504;8.526;2023-07-02T02:04:20;41.40;39.92;42.47;;
42701;Laerm;28316;49.504;8.526;2023-07-02T02:06:46;41.41;40.03;42.98;;
42701;Laerm;28316;49.504;8.526;2023-07-02T02:09:12;41.43;39.92;42.59;;
42701;Laerm;28316;49.504;8.526;2023-07-02T02:11:41;41.48;40.03;42.71;;
42701;Laerm;28316;49.504;8.526;2023-07-02T02:14:07;41.49;40.13;42.76;;
42701;Laerm;28316;49.504;8.526;2023-07-02T02:16:32;41.49;39.58;42.65;;
42701;Laerm;28316;49.504;8.526;2023-07-02T02:19:01;41.49;39.92;42.65;;
42701;Laerm;28316;49.504;8.526;2023-07-02T02:21:27;41.50;40.03;42.93;;
42701;Laerm;28316;49.504;8.526;2023-07-02T02:23:53;41.50;40.03;42.82;;
42701;Laerm;28316;49.504;8.526;2023-07-02T02:26:20;41.50;40.03;42.69;;
42701;Laerm;28316;49.504;8.526;2023-07-02T02:28:47;41.50;39.58;42.79;;
42701;Laerm;28316;49.504;8.526;2023-07-02T02:31:14;41.56;39.92;46.02;;
42701;Laerm;28316;49.504;8.526;2023-07-02T02:33:40;41.60;40.03;45.01;;
42701;Laerm;28316;49.504;8.526;2023-07-02T02:36:06;41.61;39.92;43.77;;
42701;Laerm;28316;49.504;8.526;2023-07-02T02:38:32;41.60;40.23;42.88;;
42701;Laerm;28316;49.504;8.526;2023-07-02T02:40:59;41.58;40.13;43.04;;
42701;Laerm;28316;49.504;8.526;2023-07-02T02:43:26;41.60;40.23;43.90;;
42701;Laerm;28316;49.504;8.526;2023-07-02T02:45:51;41.59;40.03;44.65;;
42701;Laerm;28316;49.504;8.526;2023-07-02T02:48:17;41.61;40.23;44.19;;
42701;Laerm;28316;49.504;8.526;2023-07-02T02:50:43;41.77;40.13;49.92;;
42701;Laerm;28316;49.504;8.526;2023-07-02T02:53:09;41.60;40.23;43.76;;
42701;Laerm;28316;49.504;8.526;2023-07-02T02:55:36;41.57;39.81;44.62;;
42701;Laerm;28316;49.504;8.526;2023-07-02T02:58:02;41.58;40.13;53.14;;
42701;Laerm;28316;49.504;8.526;2023-07-02T03:00:28;41.52;39.92;42.76;;
42701;Laerm;28316;49.504;8.526;2023-07-02T03:02:54;41.50;39.92;42.71;;
42701;Laerm;28316;49.504;8.526;2023-07-02T03:05:21;41.49;40.23;42.59;;
42701;Laerm;28316;49.504;8.526;2023-07-02T03:07:49;41.48;40.03;42.82;;
42701;Laerm;28316;49.504;8.526;2023-07-02T03:10:15;41.49;40.03;42.65;;
42701;Laerm;28316;49.504;8.526;2023-07-02T03:12:41;41.51;39.92;42.88;;
42701;Laerm;28316;49.504;8.526;2023-07-02T03:15:07;41.55;40.23;43.58;;
42701;Laerm;28316;49.504;8.526;2023-07-02T03:17:33;41.52;39.70;44.11;;
42701;Laerm;28316;49.504;8.526;2023-07-02T03:19:59;41.51;40.03;42.82;;
42701;Laerm;28316;49.504;8.526;2023-07-02T03:22:25;41.51;40.03;42.82;;
42701;Laerm;28316;49.504;8.526;2023-07-02T03:24:50;41.50;40.13;42.76;;
42701;Laerm;28316;49.504;8.526;2023-07-02T03:27:16;41.51;40.13;43.04;;
42701;Laerm;28316;49.504;8.526;2023-07-02T03:29:42;41.48;40.03;42.53;;
42701;Laerm;28316;49.504;8.526;2023-07-02T03:32:08;41.49;39.92;43.19;;
42701;Laerm;28316;49.504;8.526;2023-07-02T03:34:33;41.52;39.92;46.62;;
42701;Laerm;28316;49.504;8.526;2023-07-02T03:36:59;41.51;40.03;42.88;;
42701;Laerm;28316;49.504;8.526;2023-07-02T03:39:25;41.52;40.03;42.98;;
42701;Laerm;28316;49.504;8.526;2023-07-02T03:41:51;41.51;40.13;42.98;;
42701;Laerm;28316;49.504;8.526;2023-07-02T03:44:16;41.50;39.92;42.71;;
42701;Laerm;28316;49.504;8.526;2023-07-02T03:46:43;41.51;39.81;42.65;;
42701;Laerm;28316;49.504;8.526;2023-07-02T03:49:08;41.55;40.03;45.07;;
42701;Laerm;28316;49.504;8.526;2023-07-02T03:51:34;41.54;40.08;43.24;;
42701;Laerm;28316;49.504;8.526;2023-07-02T03:54:00;41.57;39.92;45.78;;
42701;Laerm;28316;49.504;8.526;2023-07-02T03:56:26;41.53;40.23;42.69;;
42701;Laerm;28316;49.504;8.526;2023-07-02T03:58:52;41.51;39.81;42.82;;
42701;Laerm;28316;49.504;8.526;2023-07-02T04:01:18;41.51;40.03;42.65;;
42701;Laerm;28316;49.504;8.526;2023-07-02T04:03:51;41.51;39.81;43.90;;
42701;Laerm;28316;49.504;8.526;2023-07-02T04:06:18;41.53;40.13;45.63;;
42701;Laerm;28316;49.504;8.526;2023-07-02T04:08:44;41.51;39.92;43.81;;
42701;Laerm;28316;49.504;8.526;2023-07-02T04:11:11;41.55;40.13;46.02;;
42701;Laerm;28316;49.504;8.526;2023-07-02T04:13:38;41.52;39.92;43.99;;
42701;Laerm;28316;49.504;8.526;2023-07-02T04:16:05;41.49;40.03;42.65;;
42701;Laerm;28316;49.504;8.526;2023-07-02T04:18:31;41.46;39.21;42.65;;
42701;Laerm;28316;49.504;8.526;2023-07-02T04:20:58;41.45;39.81;42.65;;
42701;Laerm;28316;49.504;8.526;2023-07-02T04:23:25;41.46;40.03;42.82;;
42701;Laerm;28316;49.504;8.526;2023-07-02T04:25:51;41.45;39.81;44.03;;
42701;Laerm;28316;49.504;8.526;2023-07-02T04:28:17;41.52;39.81;48.64;;
42701;Laerm;28316;49.504;8.526;2023-07-02T04:30:43;41.47;40.03;43.39;;
42701;Laerm;28316;49.504;8.526;2023-07-02T04:33:08;41.48;40.03;42.65;;
42701;Laerm;28316;49.504;8.526;2023-07-02T04:35:34;41.54;39.92;47.62;;
42701;Laerm;28316;49.504;8.526;2023-07-02T04:38:03;41.50;40.23;42.93;;
42701;Laerm;28316;49.504;8.526;2023-07-02T04:40:29;41.53;40.03;48.52;;
42701;Laerm;28316;49.504;8.526;2023-07-02T04:42:54;41.47;39.81;42.82;;
42701;Laerm;28316;49.504;8.526;2023-07-02T04:45:25;41.49;40.13;44.15;;
42701;Laerm;28316;49.504;8.526;2023-07-02T04:47:51;41.47;39.92;43.63;;
42701;Laerm;28316;49.504;8.526;2023-07-02T04:50:18;41.48;39.92;44.73;;
42701;Laerm;28316;49.504;8.526;2023-07-02T04:52:44;41.47;39.92;42.93;;
42701;Laerm;28316;49.504;8.526;2023-07-02T04:55:10;41.56;40.03;47.44;;
42701;Laerm;28316;49.504;8.526;2023-07-02T04:57:36;41.57;39.81;50.19;;
42701;Laerm;28316;49.504;8.526;2023-07-02T05:00:03;41.48;39.81;43.94;;
42701;Laerm;28316;49.504;8.526;2023-07-02T05:02:30;41.77;39.92;56.15;;
42701;Laerm;28316;49.504;8.526;2023-07-02T05:04:55;41.47;40.13;42.71;;
42701;Laerm;28316;49.504;8.526;2023-07-02T05:07:21;41.47;40.13;42.65;;
42701;Laerm;28316;49.504;8.526;2023-07-02T05:09:47;41.47;39.92;42.93;;
42701;Laerm;28316;49.504;8.526;2023-07-02T05:12:14;41.46;40.03;43.04;;
42701;Laerm;28316;49.504;8.526;2023-07-02T05:14:39;41.46;39.99;43.44;;
42701;Laerm;28316;49.504;8.526;2023-07-02T05:17:05;41.47;39.92;43.39;;
42701;Laerm;28316;49.504;8.526;2023-07-02T05:19:31;41.49;40.03;46.64;;
42701;Laerm;28316;49.504;8.526;2023-07-02T05:21:57;41.57;39.70;53.54;;
42701;Laerm;28316;49.504;8.526;2023-07-02T05:24:22;41.52;40.03;45.69;;
42701;Laerm;28316;49.504;8.526;2023-07-02T05:26:48;41.46;39.92;42.53;;
42701;Laerm;28316;49.504;8.526;2023-07-02T05:29:16;41.49;39.92;42.82;;
42701;Laerm;28316;49.504;8.526;2023-07-02T05:31:42;41.47;40.03;42.65;;
42701;Laerm;28316;49.504;8.526;2023-07-02T05:34:08;41.49;39.92;48.99;;
42701;Laerm;28316;49.504;8.526;2023-07-02T05:36:34;41.53;39.92;47.10;;
42701;Laerm;28316;49.504;8.526;2023-07-02T05:39:00;41.47;39.92;43.94;;
42701;Laerm;28316;49.504;8.526;2023-07-02T05:41:26;41.53;40.13;47.42;;
42701;Laerm;28316;49.504;8.526;2023-07-02T05:43:57;41.53;39.70;45.54;;
42701;Laerm;28316;49.504;8.526;2023-07-02T05:46:23;41.51;39.92;45.14;;
42701;Laerm;28316;49.504;8.526;2023-07-02T05:48:49;41.55;40.03;50.92;;
42701;Laerm;28316;49.504;8.526;2023-07-02T05:51:23;41.48;39.92;43.49;;
42701;Laerm;28316;49.504;8.526;2023-07-02T05:53:50;41.56;39.81;46.06;;
42701;Laerm;28316;49.504;8.526;2023-07-02T05:56:16;41.48;40.13;42.82;;
42701;Laerm;28316;49.504;8.526;2023-07-02T05:58:42;41.49;40.03;42.71;;
42701;Laerm;28316;49.504;8.526;2023-07-02T06:01:08;41.57;40.13;52.98;;
42701;Laerm;28316;49.504;8.526;2023-07-02T06:03:34;41.55;39.92;53.13;;
42701;Laerm;28316;49.504;8.526;2023-07-02T06:06:00;41.54;40.08;47.26;;
42701;Laerm;28316;49.504;8.526;2023-07-02T06:08:25;41.50;39.92;43.68;;
42701;Laerm;28316;49.504;8.526;2023-07-02T06:10:51;41.76;39.81;52.61;;
42701;Laerm;28316;49.504;8.526;2023-07-02T06:13:17;41.78;40.03;53.06;;
42701;Laerm;28316;49.504;8.526;2023-07-02T06:15:43;41.58;40.23;44.83;;
42701;Laerm;28316;49.504;8.526;2023-07-02T06:18:09;41.67;39.92;49.38;;
42701;Laerm;28316;49.504;8.526;2023-07-02T06:20:35;41.58;39.81;43.77;;
42701;Laerm;28316;49.504;8.526;2023-07-02T06:23:01;41.57;40.23;42.93;;
42701;Laerm;28316;49.504;8.526;2023-07-02T06:25:26;41.60;40.23;42.82;;
42701;Laerm;28316;49.504;8.526;2023-07-02T06:27:52;41.76;40.13;48.05;;
42701;Laerm;28316;49.504;8.526;2023-07-02T06:30:21;41.76;40.33;48.83;;
42701;Laerm;28316;49.504;8.526;2023-07-02T06:32:47;41.71;40.13;45.66;;
42701;Laerm;28316;49.504;8.526;2023-07-02T06:35:13;41.69;40.33;44.87;;
42701;Laerm;28316;49.504;8.526;2023-07-02T06:37:39;42.14;40.13;55.77;;
42701;Laerm;28316;49.504;8.526;2023-07-02T06:40:06;42.04;40.23;52.13;;
42701;Laerm;28316;49.504;8.526;2023-07-02T06:42:32;41.71;40.43;46.03;;
42701;Laerm;28316;49.504;8.526;2023-07-02T06:44:58;41.69;40.23;45.17;;
42701;Laerm;28316;49.504;8.526;2023-07-02T06:47:24;41.67;40.33;42.82;;
42701;Laerm;28316;49.504;8.526;2023-07-02T06:49:52;41.74;40.13;46.66;;
42701;Laerm;28316;49.504;8.526;2023-07-02T06:52:18;41.93;39.92;53.75;;
42701;Laerm;28316;49.504;8.526;2023-07-02T06:54:44;41.99;40.13;49.96;;
42701;Laerm;28316;49.504;8.526;2023-07-02T06:57:09;41.86;40.23;51.47;;
42701;Laerm;28316;49.504;8.526;2023-07-02T06:59:35;41.79;39.89;50.31;;
42701;Laerm;28316;49.504;8.526;2023-07-02T07:02:02;42.60;40.43;62.48;;
42701;Laerm;28316;49.504;8.526;2023-07-02T07:04:28;43.20;40.13;60.66;;
42701;Laerm;28316;49.504;8.526;2023-07-02T07:06:54;42.22;40.13;55.92;;
42701;Laerm;28316;49.504;8.526;2023-07-02T07:09:21;42.31;40.23;56.59;;
42701;Laerm;28316;49.504;8.526;2023-07-02T07:11:47;41.94;40.33;51.07;;
42701;Laerm;28316;49.504;8.526;2023-07-02T07:14:13;41.99;40.13;50.09;;
42701;Laerm;28316;49.504;8.526;2023-07-02T07:16:39;41.95;40.13;51.33;;
42701;Laerm;28316;49.504;8.526;2023-07-02T07:19:05;42.65;40.13;55.41;;
42701;Laerm;28316;49.504;8.526;2023-07-02T07:21:31;42.77;40.13;62.87;;
42701;Laerm;28316;49.504;8.526;2023-07-02T07:23:57;42.37;40.03;53.20;;
42701;Laerm;28316;49.504;8.526;2023-07-02T07:26:23;42.92;39.70;63.03;;
42701;Laerm;28316;49.504;8.526;2023-07-02T07:28:49;41.66;40.03;52.81;;
42701;Laerm;28316;49.504;8.526;2023-07-02T07:31:15;41.74;39.70;48.78;;
42701;Laerm;28316;49.504;8.526;2023-07-02T07:33:40;41.76;39.70;51.02;;
42701;Laerm;28316;49.504;8.526;2023-07-02T07:36:06;42.06;39.92;60.60;;
42701;Laerm;28316;49.504;8.526;2023-07-02T07:38:32;41.63;39.81;51.03;;
42701;Laerm;28316;49.504;8.526;2023-07-02T07:40:58;41.93;39.57;53.24;;
42701;Laerm;28316;49.504;8.526;2023-07-02T07:43:23;42.35;39.68;58.26;;
42701;Laerm;28316;49.504;8.526;2023-07-02T07:45:49;43.11;39.58;61.82;;
42701;Laerm;28316;49.504;8.526;2023-07-02T07:48:15;41.73;39.34;51.93;;
42701;Laerm;28316;49.504;8.526;2023-07-02T07:50:41;43.20;39.58;61.43;;
42701;Laerm;28316;49.504;8.526;2023-07-02T07:53:06;41.67;38.95;58.55;;
42701;Laerm;28316;49.504;8.526;2023-07-02T07:55:32;44.74;39.21;64.78;;
42701;Laerm;28316;49.504;8.526;2023-07-02T07:57:58;44.29;38.95;62.69;;
42701;Laerm;28316;49.504;8.526;2023-07-02T08:00:23;42.61;39.46;60.46;;
42701;Laerm;28316;49.504;8.526;2023-07-02T08:02:51;42.91;38.81;61.77;;
42701;Laerm;28316;49.504;8.526;2023-07-02T08:05:18;44.85;38.81;69.62;;
42701;Laerm;28316;49.504;8.526;2023-07-02T08:07:43;42.57;37.70;61.61;;
42701;Laerm;28316;49.504;8.526;2023-07-02T08:10:10;41.63;38.81;54.03;;
42701;Laerm;28316;49.504;8.526;2023-07-02T08:12:36;43.31;38.81;61.81;;
42701;Laerm;28316;49.504;8.526;2023-07-02T08:15:01;41.52;38.37;56.59;;
42701;Laerm;28316;49.504;8.526;2023-07-02T08:17:27;41.12;38.37;57.02;;
42701;Laerm;28316;49.504;8.526;2023-07-02T08:19:56;41.99;38.05;55.61;;
42701;Laerm;28316;49.504;8.526;2023-07-02T08:22:23;42.38;38.37;63.17;;
42701;Laerm;28316;49.504;8.526;2023-07-02T08:24:48;42.16;38.37;57.67;;
42701;Laerm;28316;49.504;8.526;2023-07-02T08:27:17;42.28;38.67;62.10;;
42701;Laerm;28316;49.504;8.526;2023-07-02T08:29:46;42.07;38.05;57.67;;
42701;Laerm;28316;49.504;8.526;2023-07-02T08:32:13;43.52;38.21;63.12;;
42701;Laerm;28316;49.504;8.526;2023-07-02T08:34:39;44.40;38.05;62.17;;
42701;Laerm;28316;49.504;8.526;2023-07-02T08:37:05;42.24;38.67;61.01;;
42701;Laerm;28316;49.504;8.526;2023-07-02T08:39:31;41.68;37.88;57.08;;
42701;Laerm;28316;49.504;8.526;2023-07-02T08:41:56;41.42;38.37;54.12;;
42701;Laerm;28316;49.504;8.526;2023-07-02T08:44:23;41.67;38.21;54.53;;
42701;Laerm;28316;49.504;8.526;2023-07-02T08:46:50;41.30;37.88;55.93;;
42701;Laerm;28316;49.504;8.526;2023-07-02T08:49:16;41.78;38.05;55.65;;
42701;Laerm;28316;49.504;8.526;2023-07-02T08:51:46;41.63;38.18;58.31;;
42701;Laerm;28316;49.504;8.526;2023-07-02T08:54:12;41.60;38.21;53.10;;
42701;Laerm;28316;49.504;8.526;2023-07-02T08:56:41;41.11;38.52;53.52;;
42701;Laerm;28316;49.504;8.526;2023-07-02T08:59:08;40.85;37.70;52.67;;
42701;Laerm;28316;49.504;8.526;2023-07-02T09:01:52;41.03;37.88;54.46;;
42701;Laerm;28316;49.504;8.526;2023-07-02T09:04:24;40.75;38.21;50.35;;
42701;Laerm;28316;49.504;8.526;2023-07-02T09:07:06;40.75;37.70;49.52;;
42701;Laerm;28316;49.504;8.526;2023-07-02T09:09:33;40.73;38.21;47.36;;
42701;Laerm;28316;49.504;8.526;2023-07-02T09:11:59;40.94;37.88;50.45;;
42701;Laerm;28316;49.504;8.526;2023-07-02T09:14:30;41.42;37.70;58.87;;
42701;Laerm;28316;49.504;8.526;2023-07-02T09:17:06;40.68;37.52;48.43;;
42701;Laerm;28316;49.504;8.526;2023-07-02T09:19:33;40.49;37.70;45.33;;
42701;Laerm;28316;49.504;8.526;2023-07-02T09:21:59;41.13;37.88;52.16;;
42701;Laerm;28316;49.504;8.526;2023-07-02T09:24:31;40.61;38.05;51.65;;
42701;Laerm;28316;49.504;8.526;2023-07-02T09:26:59;42.09;37.52;59.25;;
42701;Laerm;28316;49.504;8.526;2023-07-02T09:29:31;41.65;37.88;58.70;;
42701;Laerm;28316;49.504;8.526;2023-07-02T09:32:03;40.39;37.12;46.05;;
42701;Laerm;28316;49.504;8.526;2023-07-02T09:34:37;41.28;37.88;57.94;;
42701;Laerm;28316;49.504;8.526;2023-07-02T09:37:05;41.06;37.52;57.05;;
42701;Laerm;28316;49.504;8.526;2023-07-02T09:39:33;42.45;37.88;58.74;;
42701;Laerm;28316;49.504;8.526;2023-07-02T09:42:01;41.64;37.70;60.02;;
42701;Laerm;28316;49.504;8.526;2023-07-02T09:44:32;41.00;37.12;55.79;;
42701;Laerm;28316;49.504;8.526;2023-07-02T09:47:09;45.31;37.70;69.05;;
42701;Laerm;28316;49.504;8.526;2023-07-02T09:49:41;40.62;36.91;53.04;;
42701;Laerm;28316;49.504;8.526;2023-07-02T09:52:10;40.31;37.32;49.32;;
42701;Laerm;28316;49.504;8.526;2023-07-02T09:54:37;41.75;37.52;59.89;;
42701;Laerm;28316;49.504;8.526;2023-07-02T09:57:04;43.43;37.12;63.44;;
42701;Laerm;28316;49.504;8.526;2023-07-02T09:59:31;43.93;37.70;64.78;;
42701;Laerm;28316;49.504;8.526;2023-07-02T10:01:57;40.29;37.32;48.32;;
42701;Laerm;28316;49.504;8.526;2023-07-02T10:04:23;41.02;37.52;58.92;;
42701;Laerm;28316;49.504;8.526;2023-07-02T10:06:56;40.29;37.52;50.99;;
42701;Laerm;28316;49.504;8.526;2023-07-02T10:09:43;42.69;37.12;62.72;;
42701;Laerm;28316;49.504;8.526;2023-07-02T10:12:27;44.53;37.70;64.19;;
42701;Laerm;28316;49.504;8.526;2023-07-02T10:14:56;44.16;37.12;68.27;;
42701;Laerm;28316;49.504;8.526;2023-07-02T10:17:29;40.15;36.91;54.57;;
42701;Laerm;28316;49.504;8.526;2023-07-02T10:19:58;42.62;36.69;64.16;;
42701;Laerm;28316;49.504;8.526;2023-07-02T10:22:24;40.54;36.20;50.91;;
42701;Laerm;28316;49.504;8.526;2023-07-02T10:24:57;40.83;36.91;55.25;;
42701;Laerm;28316;49.504;8.526;2023-07-02T10:27:42;40.61;35.86;52.42;;
42701;Laerm;28316;49.504;8.526;2023-07-02T10:36:29;40.79;36.45;56.07;;
42701;Laerm;28316;49.504;8.526;2023-07-02T10:39:04;41.43;36.69;56.37;;
42701;Laerm;28316;49.504;8.526;2023-07-02T10:41:30;39.76;36.34;48.02;;
42701;Laerm;28316;49.504;8.526;2023-07-02T10:44:09;41.21;36.34;60.62;;
42701;Laerm;28316;49.504;8.526;2023-07-02T10:46:46;41.92;36.69;57.74;;
42701;Laerm;28316;49.504;8.526;2023-07-02T10:49:13;41.55;36.91;56.52;;
42701;Laerm;28316;49.504;8.526;2023-07-02T10:51:39;40.51;35.94;55.92;;
42701;Laerm;28316;49.504;8.526;2023-07-02T10:54:05;40.00;36.20;48.34;;
42701;Laerm;28316;49.504;8.526;2023-07-02T10:56:31;40.31;36.45;51.23;;
42701;Laerm;28316;49.504;8.526;2023-07-02T10:58:58;39.67;36.69;45.77;;
42701;Laerm;28316;49.504;8.526;2023-07-02T11:01:31;39.84;36.45;46.73;;
42701;Laerm;28316;49.504;8.526;2023-07-02T11:04:03;43.12;36.69;67.65;;
42701;Laerm;28316;49.504;8.526;2023-07-02T11:06:32;42.23;35.66;58.39;;
42701;Laerm;28316;49.504;8.526;2023-07-02T11:08:59;39.96;36.20;50.70;;
42701;Laerm;28316;49.504;8.526;2023-07-02T11:11:26;39.36;36.45;43.94;;
42701;Laerm;28316;49.504;8.526;2023-07-02T11:13:52;42.56;36.20;61.73;;
42701;Laerm;28316;49.504;8.526;2023-07-02T11:16:26;39.90;36.69;51.75;;
42701;Laerm;28316;49.504;8.526;2023-07-02T11:19:06;40.92;36.69;56.19;;
42701;Laerm;28316;49.504;8.526;2023-07-02T11:21:34;39.74;36.20;49.36;;
42701;Laerm;28316;49.504;8.526;2023-07-02T11:24:07;40.95;36.10;56.86;;
42701;Laerm;28316;49.504;8.526;2023-07-02T11:26:37;40.66;35.94;50.61;;
42701;Laerm;28316;49.504;8.526;2023-07-02T11:29:03;40.83;36.20;57.66;;
42701;Laerm;28316;49.504;8.526;2023-07-02T11:31:29;43.90;35.66;69.57;;
42701;Laerm;28316;49.504;8.526;2023-07-02T11:33:55;39.44;35.36;44.83;;
42701;Laerm;28316;49.504;8.526;2023-07-02T11:36:24;39.41;36.20;45.07;;
42701;Laerm;28316;49.504;8.526;2023-07-02T11:38:51;39.60;35.94;48.87;;
42701;Laerm;28316;49.504;8.526;2023-07-02T11:41:18;40.12;35.36;51.35;;
42701;Laerm;28316;49.504;8.526;2023-07-02T11:43:44;41.42;35.66;62.51;;
42701;Laerm;28316;49.504;8.526;2023-07-02T11:46:10;40.21;36.20;56.22;;
42701;Laerm;28316;49.504;8.526;2023-07-02T11:48:36;42.51;36.20;61.22;;
42701;Laerm;28316;49.504;8.526;2023-07-02T11:51:02;39.95;36.20;50.17;;
42701;Laerm;28316;49.504;8.526;2023-07-02T11:53:27;39.50;35.66;46.02;;
42701;Laerm;28316;49.504;8.526;2023-07-02T11:55:53;41.65;35.66;62.46;;
42701;Laerm;28316;49.504;8.526;2023-07-02T11:58:19;41.44;35.66;58.48;;
42701;Laerm;28316;49.504;8.526;2023-07-02T12:00:44;40.15;35.94;56.61;;
42701;Laerm;28316;49.504;8.526;2023-07-02T12:03:10;39.78;35.94;49.94;;
42701;Laerm;28316;49.504;8.526;2023-07-02T12:05:36;40.04;35.36;50.97;;
42701;Laerm;28316;49.504;8.526;2023-07-02T12:08:02;39.86;35.94;51.03;;
42701;Laerm;28316;49.504;8.526;2023-07-02T12:10:28;39.17;35.94;45.69;;
42701;Laerm;28316;49.504;8.526;2023-07-02T12:12:54;39.65;36.20;53.55;;
42701;Laerm;28316;49.504;8.526;2023-07-02T12:15:20;41.12;35.94;56.87;;
42701;Laerm;28316;49.504;8.526;2023-07-02T12:17:45;42.81;35.94;63.10;;
42701;Laerm;28316;49.504;8.526;2023-07-02T12:20:11;41.43;35.94;60.87;;
42701;Laerm;28316;49.504;8.526;2023-07-02T12:22:37;40.59;35.59;54.28;;
42701;Laerm;28316;49.504;8.526;2023-07-02T12:25:05;39.38;35.04;51.29;;
42701;Laerm;28316;49.504;8.526;2023-07-02T12:27:30;39.66;35.36;49.64;;
42701;Laerm;28316;49.504;8.526;2023-07-02T12:29:56;40.57;36.20;52.48;;
42701;Laerm;28316;49.504;8.526;2023-07-02T12:32:22;39.41;36.20;44.87;;
42701;Laerm;28316;49.504;8.526;2023-07-02T12:34:48;41.22;36.20;61.26;;
42701;Laerm;28316;49.504;8.526;2023-07-02T12:37:13;41.41;36.20;61.35;;
42701;Laerm;28316;49.504;8.526;2023-07-02T12:39:43;40.01;35.94;57.95;;
42701;Laerm;28316;49.504;8.526;2023-07-02T12:42:08;41.04;35.31;59.40;;
42701;Laerm;28316;49.504;8.526;2023-07-02T12:44:34;40.14;35.94;53.12;;
42701;Laerm;28316;49.504;8.526;2023-07-02T12:47:00;39.25;35.94;44.62;;
42701;Laerm;28316;49.504;8.526;2023-07-02T12:49:26;40.13;36.20;53.09;;
42701;Laerm;28316;49.504;8.526;2023-07-02T12:51:52;40.95;35.66;57.03;;
42701;Laerm;28316;49.504;8.526;2023-07-02T12:54:17;40.60;35.94;55.91;;
42701;Laerm;28316;49.504;8.526;2023-07-02T12:56:43;39.09;35.04;45.45;;
42701;Laerm;28316;49.504;8.526;2023-07-02T12:59:09;42.13;35.86;59.35;;
42701;Laerm;28316;49.504;8.526;2023-07-02T13:01:34;39.14;35.94;48.49;;
42701;Laerm;28316;49.504;8.526;2023-07-02T13:04:00;39.68;35.36;53.34;;
42701;Laerm;28316;49.504;8.526;2023-07-02T13:06:27;38.91;35.36;45.60;;
42701;Laerm;28316;49.504;8.526;2023-07-02T13:08:53;39.00;35.36;44.03;;
42701;Laerm;28316;49.504;8.526;2023-07-02T13:11:21;40.26;35.36;61.85;;
42701;Laerm;28316;49.504;8.526;2023-07-02T13:13:47;39.03;35.36;44.94;;
42701;Laerm;28316;49.504;8.526;2023-07-02T13:16:13;39.29;35.36;52.41;;
42701;Laerm;28316;49.504;8.526;2023-07-02T13:18:39;39.37;35.04;52.87;;
42701;Laerm;28316;49.504;8.526;2023-07-02T13:21:05;40.72;32.93;57.99;;
42701;Laerm;28316;49.504;8.526;2023-07-02T13:23:30;40.82;35.94;56.63;;
42701;Laerm;28316;49.504;8.526;2023-07-02T13:25:56;40.98;35.04;58.61;;
42701;Laerm;28316;49.504;8.526;2023-07-02T13:28:22;39.97;35.66;56.19;;
42701;Laerm;28316;49.504;8.526;2023-07-02T13:30:48;39.17;35.04;47.26;;
42701;Laerm;28316;49.504;8.526;2023-07-02T13:33:14;38.98;35.36;49.92;;
42701;Laerm;28316;49.504;8.526;2023-07-02T13:35:40;38.92;35.36;43.94;;
42701;Laerm;28316;49.504;8.526;2023-07-02T13:38:06;38.98;35.66;43.58;;
42701;Laerm;28316;49.504;8.526;2023-07-02T13:40:32;39.08;35.36;44.31;;
42701;Laerm;28316;49.504;8.526;2023-07-02T13:42:58;41.38;35.36;58.73;;
42701;Laerm;28316;49.504;8.526;2023-07-02T13:45:24;39.72;35.66;55.08;;
42701;Laerm;28316;49.504;8.526;2023-07-02T13:47:49;39.68;35.36;58.89;;
42701;Laerm;28316;49.504;8.526;2023-07-02T13:50:15;40.73;35.94;61.78;;
42701;Laerm;28316;49.504;8.526;2023-07-02T13:52:41;40.61;34.69;62.41;;